Time;durP1;ratioP1;P1;durP2;ratioP2;P2;SDS_P1;SDS_P2;PMS_P1;PMS_P2;Temp;Humidity;BMP_temperature;BMP_pressure;BME280_temperature;BME280_humidity;BME280_pressure;Samples;Min_cycle;Max_cycle;Signal;HPM_P1;HPM_P2
2024/01/11 00:01:46;;;;;;;66.30;23.67;;;;;;;;;;6215816;28;20050;-77
2024/01/11 00:04:48;;;;;;;55.13;19.40;;;;;;;;;;6211054;28;20057;-78
2024/01/11 00:07:49;;;;;;;58.75;19.83;;;;;;;;;;6218650;28;20390;-77
2024/01/11 00:10:51;;;;;;;58.58;23.27;;;;;;;;;;6221856;28;20418;-77
2024/01/11 00:13:53;;;;;;;62.90;22.98;;;;;;;;;;6206460;28;20712;-77
2024/01/11 00:16:55;;;;;;;59.50;20.63;;;;;;;;;;6191680;28;20635;-78
2024/01/11 00:19:56;;;;;;;46.65;15.95;;;;;;;;;;6198149;28;20057;-78
2024/01/11 00:22:58;;;;;;;40.47;15.50;;;;;;;;;;6202550;28;20735;-77
2024/01/11 00:26:00;;;;;;;66.75;22.33;;;;;;;;;;6183170;28;20491;-77
2024/01/11 00:29:02;;;;;;;95.68;31.52;;;;;;;;;;6191564;28;20045;-77
2024/01/11 00:32:04;;;;;;;46.88;19.10;;;;;;;;;;6195891;28;20141;-77
2024/01/11 00:35:06;;;;;;;42.00;16.90;;;;;;;;;;6198982;28;20057;-77
2024/01/11 00:38:08;;;;;;;41.03;16.83;;;;;;;;;;6203482;28;20562;-77
2024/01/11 00:41:09;;;;;;;40.92;14.63;;;;;;;;;;6191340;28;20120;-76
2024/01/11 00:44:11;;;;;;;34.30;14.25;;;;;;;;;;6179924;28;20046;-77
2024/01/11 00:47:13;;;;;;;37.63;14.63;;;;;;;;;;6195005;28;20055;-77
2024/01/11 00:50:14;;;;;;;32.15;12.63;;;;;;;;;;6203585;28;20077;-77
2024/01/11 00:53:16;;;;;;;33.28;13.85;;;;;;;;;;6196415;28;20050;-77
2024/01/11 00:56:19;;;;;;;28.40;11.88;;;;;;;;;;6174894;28;20575;-77
2024/01/11 00:59:21;;;;;;;33.90;13.73;;;;;;;;;;6193898;28;20125;-77
2024/01/11 01:02:23;;;;;;;30.02;13.13;;;;;;;;;;6191965;28;20046;-78
2024/01/11 01:05:25;;;;;;;37.85;13.30;;;;;;;;;;6198429;28;20049;-78
2024/01/11 01:08:27;;;;;;;58.95;22.08;;;;;;;;;;6195823;28;20050;-78
2024/01/11 01:11:29;;;;;;;39.43;15.83;;;;;;;;;;6203572;28;20177;-78
2024/01/11 01:14:30;;;;;;;53.20;19.58;;;;;;;;;;6189589;28;20050;-78
2024/01/11 01:17:32;;;;;;;43.97;17.15;;;;;;;;;;6192143;28;20047;-77
2024/01/11 01:20:34;;;;;;;43.53;14.93;;;;;;;;;;6200833;28;20517;-78
2024/01/11 01:23:36;;;;;;;45.13;16.40;;;;;;;;;;6198806;28;20090;-76
2024/01/11 01:26:38;;;;;;;53.70;17.88;;;;;;;;;;6189849;28;20121;-77
2024/01/11 01:29:40;;;;;;;47.10;17.50;;;;;;;;;;6198832;28;20050;-77
2024/01/11 01:32:41;;;;;;;44.70;16.70;;;;;;;;;;6223786;28;20049;-78
2024/01/11 01:35:43;;;;;;;42.63;15.00;;;;;;;;;;6220591;28;20045;-76
2024/01/11 01:38:45;;;;;;;38.78;14.93;;;;;;;;;;6218369;28;20504;-78
2024/01/11 01:41:47;;;;;;;36.28;12.73;;;;;;;;;;6223142;28;20099;-78
2024/01/11 01:44:48;;;;;;;33.90;14.88;;;;;;;;;;6203826;28;20136;-79
2024/01/11 01:47:50;;;;;;;33.78;15.75;;;;;;;;;;6260297;23;20041;-82
2024/01/11 01:50:52;;;;;;;36.97;13.77;;;;;;;;;;6242199;28;20068;-82
2024/01/11 01:53:56;;;;;;;34.75;14.70;;;;;;;;;;6261516;28;20099;-82
2024/01/11 01:57:00;;;;;;;43.30;14.27;;;;;;;;;;6247610;28;20045;-82
2024/01/11 02:00:03;;;;;;;43.58;15.73;;;;;;;;;;6243727;28;20068;-82
2024/01/11 02:03:15;;;;;;;41.72;15.70;;;;;;;;;;6250094;28;20071;-80
2024/01/11 02:06:18;;;;;;;37.17;15.30;;;;;;;;;;6246951;28;20052;-80
2024/01/11 02:09:20;;;;;;;38.08;15.55;;;;;;;;;;6247014;28;20056;-83
2024/01/11 02:12:23;;;;;;;34.97;13.27;;;;;;;;;;6261950;28;20041;-82
2024/01/11 02:15:25;;;;;;;29.02;11.80;;;;;;;;;;6260178;28;20049;-82
2024/01/11 02:18:27;;;;;;;32.85;13.35;;;;;;;;;;6261241;28;20055;-82
2024/01/11 02:21:31;;;;;;;40.17;15.35;;;;;;;;;;6256890;28;20466;-79
2024/01/11 02:24:32;;;;;;;29.77;14.50;;;;;;;;;;6247409;28;20041;-82
2024/01/11 02:27:50;;;;;;;34.97;15.05;;;;;;;;;;6265561;28;20049;-82
2024/01/11 02:30:52;;;;;;;26.60;13.63;;;;;;;;;;6245164;28;20056;-81
2024/01/11 02:33:55;;;;;;;36.67;13.40;;;;;;;;;;6290027;28;20215;-81
2024/01/11 02:36:57;;;;;;;28.85;12.93;;;;;;;;;;6286447;28;20056;-81
2024/01/11 02:39:59;;;;;;;31.75;12.25;;;;;;;;;;6294839;28;20045;-82
2024/01/11 02:43:08;;;;;;;30.48;12.70;;;;;;;;;;6287387;28;20874;-79
2024/01/11 02:46:10;;;;;;;31.60;14.82;;;;;;;;;;6259769;28;20028;-80
2024/01/11 02:49:12;;;;;;;33.15;13.05;;;;;;;;;;6272235;28;20163;-81
2024/01/11 02:52:14;;;;;;;28.95;12.13;;;;;;;;;;6286760;28;20060;-83
2024/01/11 02:55:16;;;;;;;37.10;14.00;;;;;;;;;;6268071;28;20327;-81
2024/01/11 02:58:17;;;;;;;34.20;14.15;;;;;;;;;;6278831;28;20055;-80
2024/01/11 03:01:20;;;;;;;29.88;11.55;;;;;;;;;;6252870;28;20049;-80
2024/01/11 03:04:22;;;;;;;33.22;13.45;;;;;;;;;;6264757;28;20064;-80
2024/01/11 03:07:23;;;;;;;42.72;13.18;;;;;;;;;;6270944;28;20049;-83
2024/01/11 03:10:25;;;;;;;39.15;14.65;;;;;;;;;;6271245;28;20053;-81
2024/01/11 03:13:27;;;;;;;39.25;14.35;;;;;;;;;;6295985;28;20052;-81
2024/01/11 03:16:28;;;;;;;33.85;13.30;;;;;;;;;;6275646;28;20057;-80
2024/01/11 03:19:30;;;;;;;35.15;14.05;;;;;;;;;;6279153;28;20041;-79
2024/01/11 03:22:32;;;;;;;34.03;13.60;;;;;;;;;;6286756;28;20061;-79
2024/01/11 03:25:34;;;;;;;28.15;12.77;;;;;;;;;;6263789;28;20079;-80
2024/01/11 03:28:36;;;;;;;33.45;12.32;;;;;;;;;;6283342;28;20069;-79
2024/01/11 03:31:41;;;;;;;32.70;13.23;;;;;;;;;;6258629;28;20803;-79
2024/01/11 03:34:42;;;;;;;31.50;12.23;;;;;;;;;;6288539;28;20037;-79
2024/01/11 03:37:44;;;;;;;38.60;14.32;;;;;;;;;;6254906;28;20090;-80
2024/01/11 03:40:46;;;;;;;34.42;12.45;;;;;;;;;;6254391;28;20056;-79
2024/01/11 03:43:49;;;;;;;32.72;11.43;;;;;;;;;;6263153;28;20045;-81
2024/01/11 03:46:51;;;;;;;;;;;;;;;;;;6274689;28;20052;-81
2024/01/11 03:49:53;;;;;;;29.35;11.60;;;;;;;;;;6261469;28;19909;-80
2024/01/11 03:52:55;;;;;;;30.53;12.50;;;;;;;;;;6271922;28;20046;-80
2024/01/11 03:55:57;;;;;;;31.58;12.60;;;;;;;;;;6293883;28;20440;-81
2024/01/11 03:58:59;;;;;;;38.15;13.55;;;;;;;;;;6294461;28;20052;-80
2024/01/11 04:02:00;;;;;;;33.17;14.02;;;;;;;;;;6271721;28;20041;-81
2024/01/11 04:05:03;;;;;;;31.58;13.27;;;;;;;;;;6247437;28;20040;-80
2024/01/11 04:08:06;;;;;;;26.20;12.73;;;;;;;;;;6288471;28;20113;-81
2024/01/11 04:11:08;;;;;;;37.33;13.18;;;;;;;;;;6271866;28;20105;-79
2024/01/11 04:14:10;;;;;;;34.63;14.18;;;;;;;;;;6276542;28;20106;-80
2024/01/11 04:17:12;;;;;;;31.10;12.82;;;;;;;;;;6267813;28;20052;-84
2024/01/11 04:20:14;;;;;;;37.30;14.45;;;;;;;;;;6251240;28;20048;-81
2024/01/11 04:23:15;;;;;;;35.28;14.82;;;;;;;;;;6243525;28;20065;-82
2024/01/11 04:26:17;;;;;;;34.05;13.35;;;;;;;;;;6255904;28;20065;-81
2024/01/11 04:29:19;;;;;;;28.13;13.93;;;;;;;;;;6272423;28;20152;-80
2024/01/11 04:32:21;;;;;;;28.50;14.20;;;;;;;;;;6281957;28;20080;-83
2024/01/11 04:35:23;;;;;;;38.47;13.35;;;;;;;;;;6251727;28;20042;-81
2024/01/11 04:38:24;;;;;;;25.15;12.27;;;;;;;;;;6260789;28;20040;-81
2024/01/11 04:41:26;;;;;;;34.85;14.30;;;;;;;;;;6217828;28;20049;-81
2024/01/11 04:44:28;;;;;;;33.85;13.77;;;;;;;;;;6237332;28;20045;-84
2024/01/11 04:47:30;;;;;;;33.22;12.57;;;;;;;;;;6221158;28;20048;-83
2024/01/11 04:50:32;;;;;;;36.05;15.40;;;;;;;;;;6243860;28;20045;-82
2024/01/11 04:53:37;;;;;;;29.90;11.85;;;;;;;;;;6266019;28;20045;-81
2024/01/11 04:56:38;;;;;;;32.33;12.57;;;;;;;;;;6250176;28;20050;-82
2024/01/11 04:59:40;;;;;;;33.65;12.48;;;;;;;;;;6257947;28;20064;-81
2024/01/11 05:02:42;;;;;;;34.05;12.13;;;;;;;;;;6260615;28;20052;-81
2024/01/11 05:05:44;;;;;;;27.17;12.15;;;;;;;;;;6273355;28;20049;-81
2024/01/11 05:08:46;;;;;;;28.80;13.02;;;;;;;;;;6275350;28;20037;-82
2024/01/11 05:11:48;;;;;;;30.80;11.55;;;;;;;;;;6250611;28;20045;-82
2024/01/11 05:14:50;;;;;;;38.80;15.13;;;;;;;;;;6231114;28;20045;-81
2024/01/11 05:17:52;;;;;;;38.03;12.43;;;;;;;;;;6239793;28;20037;-82
2024/01/11 05:20:54;;;;;;;33.30;12.40;;;;;;;;;;6243300;28;20101;-81
2024/01/11 05:23:56;;;;;;;30.35;13.05;;;;;;;;;;6253088;28;20041;-81
2024/01/11 05:26:59;;;;;;;36.00;12.52;;;;;;;;;;6262727;28;20041;-81
2024/01/11 05:30:00;;;;;;;;;;;;;;;;;;6231070;28;20127;-81
2024/01/11 05:33:03;;;;;;;20.92;10.70;;;;;;;;;;6248592;28;20409;-81
2024/01/11 05:36:05;;;;;;;32.92;12.88;;;;;;;;;;6238768;28;20711;-81
2024/01/11 05:39:07;;;;;;;31.05;13.13;;;;;;;;;;6250328;28;20423;-80
2024/01/11 05:42:09;;;;;;;30.30;12.57;;;;;;;;;;6253513;28;20515;-81
2024/01/11 05:45:11;;;;;;;31.55;11.98;;;;;;;;;;6249447;28;20048;-80
2024/01/11 05:48:18;;;;;;;26.25;12.20;;;;;;;;;;6241933;28;20191;-81
2024/01/11 05:51:21;;;;;;;28.58;14.25;;;;;;;;;;6238378;28;20071;-83
2024/01/11 05:54:22;;;;;;;32.22;13.65;;;;;;;;;;6249971;28;20049;-81
2024/01/11 05:57:24;;;;;;;32.75;14.27;;;;;;;;;;6270326;28;20060;-81
2024/01/11 06:00:26;;;;;;;41.40;16.13;;;;;;;;;;6242055;28;20049;-81
2024/01/11 06:03:28;;;;;;;31.90;13.85;;;;;;;;;;6239122;28;20042;-83
2024/01/11 06:06:29;;;;;;;32.17;13.02;;;;;;;;;;6257370;28;20151;-82
2024/01/11 06:09:31;;;;;;;31.52;12.57;;;;;;;;;;6225379;28;20041;-82
2024/01/11 06:12:33;;;;;;;27.95;13.25;;;;;;;;;;6242585;28;20052;-85
2024/01/11 06:15:35;;;;;;;27.90;11.70;;;;;;;;;;6250999;28;20427;-81
2024/01/11 06:18:36;;;;;;;27.70;12.38;;;;;;;;;;6256755;28;20037;-79
2024/01/11 06:21:38;;;;;;;28.38;12.55;;;;;;;;;;6252100;28;20088;-80
2024/01/11 06:24:40;;;;;;;31.98;12.60;;;;;;;;;;6259532;28;20045;-82
2024/01/11 06:27:43;;;;;;;28.45;11.75;;;;;;;;;;6243255;28;20042;-82
2024/01/11 06:30:45;;;;;;;;;;;;;;;;;;6241592;28;20042;-82
2024/01/11 06:33:46;;;;;;;51.45;24.92;;;;;;;;;;6242299;28;19928;-83
2024/01/11 06:36:52;;;;;;;30.33;13.73;;;;;;;;;;6240995;28;20041;-82
2024/01/11 06:39:54;;;;;;;28.58;14.10;;;;;;;;;;6263209;28;20053;-81
2024/01/11 06:42:55;;;;;;;28.65;11.90;;;;;;;;;;6257572;28;20049;-80
2024/01/11 06:46:02;;;;;;;27.77;11.70;;;;;;;;;;6268043;28;20415;-82
2024/01/11 06:49:05;;;;;;;31.38;11.95;;;;;;;;;;6252489;28;20053;-79
2024/01/11 06:52:07;;;;;;;23.10;10.55;;;;;;;;;;6250219;28;20044;-81
2024/01/11 06:55:10;;;;;;;26.83;11.88;;;;;;;;;;6275025;28;20110;-80
2024/01/11 06:58:12;;;;;;;33.10;14.48;;;;;;;;;;6244096;28;20068;-81
2024/01/11 07:01:14;;;;;;;36.23;13.67;;;;;;;;;;6236589;28;20051;-81
2024/01/11 07:04:16;;;;;;;57.97;18.35;;;;;;;;;;6232179;28;20045;-80
2024/01/11 07:07:18;;;;;;;39.55;13.88;;;;;;;;;;6266035;28;20053;-82
2024/01/11 07:10:20;;;;;;;31.25;14.02;;;;;;;;;;6242996;28;20048;-82
2024/01/11 07:13:21;;;;;;;32.33;14.27;;;;;;;;;;6275564;28;20060;-81
2024/01/11 07:16:23;;;;;;;40.45;15.85;;;;;;;;;;6280294;28;20041;-84
2024/01/11 07:19:25;;;;;;;53.22;18.70;;;;;;;;;;6237968;28;20096;-83
2024/01/11 07:22:27;;;;;;;53.75;18.02;;;;;;;;;;6248698;28;20041;-80
2024/01/11 07:25:28;;;;;;;48.90;17.27;;;;;;;;;;6259838;28;20049;-82
2024/01/11 07:28:30;;;;;;;42.28;16.40;;;;;;;;;;6234761;28;20048;-81
2024/01/11 07:31:32;;;;;;;34.45;14.70;;;;;;;;;;6271212;28;20046;-81
2024/01/11 07:34:34;;;;;;;52.88;25.45;;;;;;;;;;6265959;28;20060;-82
2024/01/11 07:37:39;;;;;;;56.53;25.45;;;;;;;;;;6240106;28;20517;-83
2024/01/11 07:40:41;;;;;;;46.47;19.42;;;;;;;;;;6244602;28;20576;-82
2024/01/11 07:43:44;;;;;;;43.65;16.45;;;;;;;;;;6243613;28;20051;-82
2024/01/11 07:46:55;;;;;;;39.58;15.88;;;;;;;;;;6261628;28;20053;-84
2024/01/11 07:50:12;;;;;;;37.92;15.77;;;;;;;;;;6259173;28;20041;-81
2024/01/11 07:53:14;;;;;;;45.13;16.00;;;;;;;;;;6260573;28;20558;-82
2024/01/11 07:56:17;;;;;;;35.23;14.17;;;;;;;;;;6262915;28;20103;-84
2024/01/11 07:59:18;;;;;;;26.63;13.05;;;;;;;;;;6280108;28;20171;-82
2024/01/11 08:02:21;;;;;;;24.98;12.20;;;;;;;;;;6265437;28;20056;-84
2024/01/11 08:05:23;;;;;;;36.03;16.10;;;;;;;;;;6260705;28;20057;-83
2024/01/11 08:08:25;;;;;;;35.58;15.40;;;;;;;;;;6256785;28;20045;-82
2024/01/11 08:11:28;;;;;;;42.25;18.15;;;;;;;;;;6232387;28;20041;-81
2024/01/11 08:14:32;;;;;;;42.35;17.95;;;;;;;;;;6236400;28;20080;-80
2024/01/11 08:17:34;;;;;;;36.75;14.48;;;;;;;;;;6248839;28;20047;-83
2024/01/11 08:20:39;;;;;;;27.67;12.43;;;;;;;;;;6244244;28;20068;-82
2024/01/11 08:23:44;;;;;;;29.53;14.07;;;;;;;;;;6260012;28;20055;-82
2024/01/11 08:26:48;;;;;;;32.97;15.30;;;;;;;;;;6256949;28;20044;-81
2024/01/11 08:29:50;;;;;;;51.40;17.10;;;;;;;;;;6233816;28;20499;-80
2024/01/11 08:32:52;;;;;;;40.25;18.73;;;;;;;;;;6240555;28;20091;-82
2024/01/11 08:35:54;;;;;;;62.20;23.17;;;;;;;;;;6250556;28;20049;-81
2024/01/11 08:38:56;;;;;;;51.20;22.85;;;;;;;;;;6237315;28;20048;-82
2024/01/11 08:41:57;;;;;;;47.47;19.73;;;;;;;;;;6260169;28;20037;-82
2024/01/11 08:45:06;;;;;;;36.55;17.20;;;;;;;;;;6243902;28;20052;-82
2024/01/11 08:48:08;;;;;;;40.00;16.13;;;;;;;;;;6247406;28;20045;-82
2024/01/11 08:51:11;;;;;;;45.38;19.50;;;;;;;;;;6245605;28;20468;-83
2024/01/11 08:54:15;;;;;;;50.55;20.25;;;;;;;;;;6263010;28;20052;-83
2024/01/11 08:57:18;;;;;;;67.63;23.27;;;;;;;;;;6253101;28;20045;-82
2024/01/11 09:00:20;;;;;;;47.38;18.45;;;;;;;;;;6254048;28;20041;-83
2024/01/11 09:03:22;;;;;;;39.78;17.30;;;;;;;;;;6243704;28;20045;-83
2024/01/11 09:06:24;;;;;;;45.87;18.20;;;;;;;;;;6243746;28;20045;-82
2024/01/11 09:09:26;;;;;;;43.15;17.20;;;;;;;;;;6222397;28;20591;-83
2024/01/11 09:12:27;;;;;;;40.47;19.27;;;;;;;;;;6231276;28;20504;-81
2024/01/11 09:15:30;;;;;;;48.35;21.55;;;;;;;;;;6231279;28;20044;-83
2024/01/11 09:18:32;;;;;;;45.33;20.83;;;;;;;;;;6250662;28;20037;-82
2024/01/11 09:21:34;;;;;;;63.25;27.15;;;;;;;;;;6270161;28;20454;-82
2024/01/11 09:24:37;;;;;;;62.63;26.95;;;;;;;;;;6261420;28;20068;-82
2024/01/11 09:27:41;;;;;;;79.32;29.50;;;;;;;;;;6235370;28;20862;-84
2024/01/11 09:30:42;;;;;;;61.20;25.00;;;;;;;;;;6261443;28;20052;-85
2024/01/11 09:33:45;;;;;;;54.53;22.80;;;;;;;;;;6286241;22;20076;-79
2024/01/11 09:36:47;;;;;;;61.53;24.92;;;;;;;;;;6253700;28;20041;-80
2024/01/11 09:39:49;;;;;;;65.07;25.55;;;;;;;;;;6266210;28;20057;-80
2024/01/11 09:42:50;;;;;;;53.83;23.35;;;;;;;;;;6273558;28;20044;-80
2024/01/11 09:45:53;;;;;;;50.33;21.75;;;;;;;;;;6297575;28;20126;-79
2024/01/11 09:48:56;;;;;;;46.78;20.50;;;;;;;;;;6319551;27;20198;-80
2024/01/11 09:51:58;;;;;;;55.70;23.08;;;;;;;;;;6296369;28;20127;-79
2024/01/11 09:55:00;;;;;;;54.35;22.80;;;;;;;;;;6303882;28;20052;-81
2024/01/11 09:58:04;;;;;;;49.27;22.37;;;;;;;;;;6280781;28;20054;-80
2024/01/11 10:01:10;;;;;;;43.25;22.05;;;;;;;;;;6310587;28;20800;-82
2024/01/11 10:04:14;;;;;;;52.38;21.65;;;;;;;;;;6307913;28;20150;-80
2024/01/11 10:07:20;;;;;;;46.50;21.17;;;;;;;;;;6300240;27;20466;-80
2024/01/11 10:10:22;;;;;;;49.17;21.83;;;;;;;;;;6293689;28;20044;-80
2024/01/11 10:13:30;;;;;;;120.80;41.83;;;;;;;;;;6294991;28;20175;-81
2024/01/11 10:16:32;;;;;;;48.22;22.02;;;;;;;;;;6302046;28;20044;-80
2024/01/11 10:19:34;;;;;;;34.20;17.40;;;;;;;;;;6302247;28;20047;-80
2024/01/11 10:22:36;;;;;;;39.20;17.10;;;;;;;;;;6284496;28;20044;-80
2024/01/11 10:25:38;;;;;;;44.88;18.15;;;;;;;;;;6292916;28;20349;-80
2024/01/11 10:28:44;;;;;;;34.42;15.30;;;;;;;;;;6287059;28;20036;-79
2024/01/11 10:31:46;;;;;;;41.58;16.55;;;;;;;;;;6283636;28;20041;-80
2024/01/11 10:34:48;;;;;;;31.85;14.93;;;;;;;;;;6301809;28;20429;-80
2024/01/11 10:37:53;;;;;;;40.87;17.73;;;;;;;;;;6299318;28;20083;-79
2024/01/11 10:40:58;;;;;;;45.30;19.63;;;;;;;;;;6296148;28;20259;-78
2024/01/11 10:44:02;;;;;;;43.60;19.63;;;;;;;;;;6311947;28;20059;-80
2024/01/11 10:47:09;;;;;;;36.55;18.20;;;;;;;;;;6286785;28;20097;-79
2024/01/11 10:50:12;;;;;;;37.05;17.58;;;;;;;;;;6299280;28;20051;-79
2024/01/11 10:53:35;;;;;;;36.25;16.23;;;;;;;;;;6274364;28;20290;-79
2024/01/11 10:56:40;;;;;;;37.40;19.25;;;;;;;;;;6267131;28;20052;-79
2024/01/11 10:59:43;;;;;;;45.00;19.90;;;;;;;;;;6290445;28;20048;-80
2024/01/11 11:02:47;;;;;;;47.25;19.88;;;;;;;;;;6291869;28;20074;-79
2024/01/11 11:05:50;;;;;;;;;;;;;;;;;;6294503;28;20123;-79
2024/01/11 11:08:53;;;;;;;37.42;18.38;;;;;;;;;;6273667;28;20246;-81
2024/01/11 11:11:58;;;;;;;38.42;17.40;;;;;;;;;;6281907;28;20503;-80
2024/01/11 11:15:02;;;;;;;37.50;17.05;;;;;;;;;;6293028;28;20056;-80
2024/01/11 11:18:05;;;;;;;43.42;19.48;;;;;;;;;;6295352;28;20514;-80
2024/01/11 11:21:13;;;;;;;35.83;17.40;;;;;;;;;;6279705;28;20048;-80
2024/01/11 11:24:19;;;;;;;37.05;17.15;;;;;;;;;;6292245;28;20036;-80
2024/01/11 11:27:21;;;;;;;38.50;16.95;;;;;;;;;;6289644;28;20464;-79
2024/01/11 11:30:23;;;;;;;33.80;15.60;;;;;;;;;;6294882;28;20041;-80
2024/01/11 11:33:26;;;;;;;39.60;16.95;;;;;;;;;;6275509;28;20047;-80
2024/01/11 11:36:28;;;;;;;35.03;15.32;;;;;;;;;;6301978;28;20040;-78
2024/01/11 11:39:31;;;;;;;35.55;16.55;;;;;;;;;;6291578;28;20040;-78
2024/01/11 11:42:36;;;;;;;35.22;17.17;;;;;;;;;;6282891;28;20071;-78
2024/01/11 11:45:41;;;;;;;35.97;17.95;;;;;;;;;;6312353;28;20052;-79
2024/01/11 11:48:45;;;;;;;43.42;18.80;;;;;;;;;;6309585;28;20040;-80
2024/01/11 11:51:47;;;;;;;38.45;18.42;;;;;;;;;;6312491;28;20459;-79
2024/01/11 11:54:49;;;;;;;50.92;19.75;;;;;;;;;;6304457;28;20043;-79
2024/01/11 11:57:55;;;;;;;31.33;15.10;;;;;;;;;;6297853;28;20037;-80
2024/01/11 12:00:58;;;;;;;27.30;13.63;;;;;;;;;;6305089;28;20051;-80
2024/01/11 12:04:02;;;;;;;30.67;15.10;;;;;;;;;;6280337;28;20048;-81
2024/01/11 12:07:04;;;;;;;87.97;28.50;;;;;;;;;;6301029;28;20051;-81
2024/01/11 12:10:06;;;;;;;56.90;23.55;;;;;;;;;;6289975;28;20080;-81
2024/01/11 12:13:08;;;;;;;45.83;19.20;;;;;;;;;;6294793;28;20099;-81
2024/01/11 12:16:11;;;;;;;42.38;17.55;;;;;;;;;;6301130;28;20051;-81
2024/01/11 12:19:13;;;;;;;33.72;16.55;;;;;;;;;;6293399;28;20711;-81
2024/01/11 12:22:15;;;;;;;31.88;16.48;;;;;;;;;;6239957;22;20517;-81
2024/01/11 12:25:17;;;;;;;30.15;16.00;;;;;;;;;;6211786;28;20129;-82
2024/01/11 12:28:19;;;;;;;27.25;13.50;;;;;;;;;;6207171;28;20081;-81
2024/01/11 12:31:21;;;;;;;30.23;14.98;;;;;;;;;;6239792;28;20050;-80
2024/01/11 12:34:24;;;;;;;28.75;14.63;;;;;;;;;;6232355;28;20205;-81
2024/01/11 12:37:26;;;;;;;26.80;13.77;;;;;;;;;;6215633;28;20065;-82
2024/01/11 12:40:28;;;;;;;23.40;11.95;;;;;;;;;;6206803;28;20133;-82
2024/01/11 12:43:30;;;;;;;22.08;10.93;;;;;;;;;;6206160;28;20041;-82
2024/01/11 12:46:32;;;;;;;16.00;9.23;;;;;;;;;;6218771;28;20037;-81
2024/01/11 12:49:34;;;;;;;14.48;8.82;;;;;;;;;;6209283;28;20096;-82
2024/01/11 12:52:36;;;;;;;13.70;7.57;;;;;;;;;;6214710;28;20053;-80
2024/01/11 12:55:38;;;;;;;14.07;8.20;;;;;;;;;;6208881;28;21240;-82
2024/01/11 12:59:06;;;;;;;16.02;6.82;;;;;;;;;;6202906;28;20068;-80
2024/01/11 13:02:09;;;;;;;17.55;9.48;;;;;;;;;;6212314;28;20065;-81
2024/01/11 13:05:10;;;;;;;17.08;8.95;;;;;;;;;;6220657;28;20136;-82
2024/01/11 13:08:12;;;;;;;16.52;9.48;;;;;;;;;;6202380;28;20072;-81
2024/01/11 13:11:16;;;;;;;14.30;9.38;;;;;;;;;;6210279;28;20392;-82
2024/01/11 13:14:19;;;;;;;15.82;8.98;;;;;;;;;;6216561;28;20052;-80
2024/01/11 13:17:21;;;;;;;15.60;10.32;;;;;;;;;;6205166;28;20053;-80
2024/01/11 13:20:24;;;;;;;17.52;10.52;;;;;;;;;;6219880;28;20056;-81
2024/01/11 13:23:28;;;;;;;23.75;12.30;;;;;;;;;;6218889;28;20283;-81
2024/01/11 13:26:30;;;;;;;24.67;12.88;;;;;;;;;;6181897;28;20079;-82
2024/01/11 13:29:32;;;;;;;18.60;8.98;;;;;;;;;;6224306;28;20069;-82
2024/01/11 13:32:34;;;;;;;16.52;9.07;;;;;;;;;;6226922;28;20045;-81
2024/01/11 13:35:40;;;;;;;14.75;7.57;;;;;;;;;;6230792;28;20046;-81
2024/01/11 13:38:43;;;;;;;10.18;5.57;;;;;;;;;;6211218;28;20412;-82
2024/01/11 13:41:45;;;;;;;9.35;5.53;;;;;;;;;;6207991;28;20045;-84
2024/01/11 13:44:47;;;;;;;19.50;8.23;;;;;;;;;;6226940;28;20038;-80
2024/01/11 13:47:50;;;;;;;12.75;6.53;;;;;;;;;;6222210;28;20046;-82
2024/01/11 13:50:55;;;;;;;26.73;11.57;;;;;;;;;;6223351;28;20429;-83
2024/01/11 13:53:57;;;;;;;22.23;11.00;;;;;;;;;;6201614;28;20054;-80
2024/01/11 13:56:59;;;;;;;8.25;5.22;;;;;;;;;;6221774;28;20115;-80
2024/01/11 14:00:00;;;;;;;8.82;4.72;;;;;;;;;;6211677;28;20470;-81
2024/01/11 14:03:05;;;;;;;10.32;5.88;;;;;;;;;;6211912;28;20053;-81
2024/01/11 14:06:08;;;;;;;11.60;5.10;;;;;;;;;;6217076;28;20109;-82
2024/01/11 14:09:10;;;;;;;13.10;5.72;;;;;;;;;;6214981;28;20045;-82
2024/01/11 14:12:12;;;;;;;9.25;4.88;;;;;;;;;;6212576;28;20048;-81
2024/01/11 14:15:14;;;;;;;7.70;4.60;;;;;;;;;;6224189;28;20727;-83
2024/01/11 14:18:15;;;;;;;11.20;6.28;;;;;;;;;;6225921;28;20050;-81
2024/01/11 14:21:17;;;;;;;10.68;4.95;;;;;;;;;;6215982;28;20041;-83
2024/01/11 14:24:19;;;;;;;26.20;11.23;;;;;;;;;;6196895;28;20049;-83
2024/01/11 14:27:33;;;;;;;13.27;6.05;;;;;;;;;;6198887;28;20046;-83
2024/01/11 14:30:34;;;;;;;18.10;7.07;;;;;;;;;;6204007;28;20128;-83
2024/01/11 14:33:36;;;;;;;14.73;7.10;;;;;;;;;;6195105;28;20045;-83
2024/01/11 14:36:38;;;;;;;10.70;5.75;;;;;;;;;;6209101;28;20045;-83
2024/01/11 14:45:00;;;;;;;14.43;7.13;;;;;;;;;;6275738;28;20806;-84
2024/01/11 14:48:02;;;;;;;11.80;5.13;;;;;;;;;;6273015;28;20118;-85
2024/01/11 14:51:07;;;;;;;10.48;4.75;;;;;;;;;;6251416;28;20419;-84
2024/01/11 14:54:09;;;;;;;5.95;3.50;;;;;;;;;;6267258;28;20060;-83
2024/01/11 14:57:12;;;;;;;7.55;4.30;;;;;;;;;;6250483;28;20470;-83
2024/01/11 15:00:15;;;;;;;7.90;4.93;;;;;;;;;;6277352;28;20049;-84
2024/01/11 15:03:18;;;;;;;23.05;8.57;;;;;;;;;;6257995;28;20041;-83
2024/01/11 15:06:21;;;;;;;15.77;8.15;;;;;;;;;;6257101;28;20059;-84
2024/01/11 15:09:26;;;;;;;25.17;10.32;;;;;;;;;;6267560;28;20037;-84
2024/01/11 15:12:28;;;;;;;36.80;16.25;;;;;;;;;;6252260;28;20596;-83
2024/01/11 15:15:30;;;;;;;18.35;9.02;;;;;;;;;;6260092;28;20037;-83
2024/01/11 15:18:31;;;;;;;51.35;21.35;;;;;;;;;;6256787;28;20044;-84
2024/01/11 15:21:34;;;;;;;55.42;25.13;;;;;;;;;;6254423;28;20048;-83
2024/01/11 15:24:40;;;;;;;54.58;24.42;;;;;;;;;;6269133;28;20114;-83
2024/01/11 15:27:42;;;;;;;56.53;25.15;;;;;;;;;;6270572;28;20146;-83
2024/01/11 15:30:44;;;;;;;60.05;30.67;;;;;;;;;;6249449;28;20452;-83
2024/01/11 15:33:46;;;;;;;64.17;29.57;;;;;;;;;;6274490;28;20410;-84
2024/01/11 15:36:52;;;;;;;40.28;20.00;;;;;;;;;;6256304;28;20733;-83
2024/01/11 15:39:54;;;;;;;31.08;16.23;;;;;;;;;;6269871;28;20414;-84
2024/01/11 15:42:59;;;;;;;39.72;18.63;;;;;;;;;;6253604;28;20052;-83
2024/01/11 15:46:01;;;;;;;78.25;31.45;;;;;;;;;;6270091;28;20060;-83
2024/01/11 15:49:03;;;;;;;40.15;18.75;;;;;;;;;;6269561;28;20041;-83
2024/01/11 15:52:06;;;;;;;42.60;18.30;;;;;;;;;;6259159;28;20871;-84
2024/01/11 15:55:09;;;;;;;88.25;30.27;;;;;;;;;;6253206;28;20448;-85
2024/01/11 15:58:11;;;;;;;;;;;;;;;;;;6243567;28;21512;-85
2024/01/11 16:01:13;;;;;;;44.25;19.80;;;;;;;;;;6234140;28;19925;-85
2024/01/11 16:04:15;;;;;;;58.67;22.88;;;;;;;;;;6238717;28;20041;-84
2024/01/11 16:07:17;;;;;;;25.20;12.07;;;;;;;;;;6247669;28;20105;-86
2024/01/11 16:10:19;;;;;;;20.52;10.23;;;;;;;;;;6257090;28;20041;-87
2024/01/11 16:13:20;;;;;;;38.47;16.48;;;;;;;;;;6267433;28;20045;-85
2024/01/11 16:16:23;;;;;;;35.88;15.85;;;;;;;;;;6277532;28;20041;-85
2024/01/11 16:19:25;;;;;;;40.10;16.10;;;;;;;;;;6249056;28;20110;-84
2024/01/11 16:22:27;;;;;;;30.20;14.17;;;;;;;;;;6253225;28;20508;-84
2024/01/11 16:25:29;;;;;;;35.42;16.50;;;;;;;;;;6268410;28;20448;-85
2024/01/11 16:28:34;;;;;;;30.85;14.95;;;;;;;;;;6224248;28;20039;-84
2024/01/11 16:31:38;;;;;;;23.30;11.23;;;;;;;;;;6280863;28;20037;-84
2024/01/11 16:34:40;;;;;;;25.85;12.18;;;;;;;;;;6246539;28;20049;-83
2024/01/11 16:37:41;;;;;;;29.20;13.35;;;;;;;;;;6257416;28;20132;-84
2024/01/11 16:40:43;;;;;;;39.72;15.50;;;;;;;;;;6252175;28;20045;-83
2024/01/11 16:43:45;;;;;;;26.15;12.93;;;;;;;;;;6253907;28;20509;-84
2024/01/11 16:46:47;;;;;;;23.90;12.02;;;;;;;;;;6218300;28;20053;-84
2024/01/11 16:49:49;;;;;;;72.10;26.00;;;;;;;;;;6236770;28;20052;-84
2024/01/11 16:52:51;;;;;;;36.05;15.32;;;;;;;;;;6220246;28;20072;-84
2024/01/11 16:55:53;;;;;;;92.15;32.70;;;;;;;;;;6228276;28;20119;-84
2024/01/11 16:58:55;;;;;;;29.60;13.77;;;;;;;;;;6233634;28;20519;-84
2024/01/11 17:01:56;;;;;;;37.08;15.68;;;;;;;;;;6234720;28;20533;-84
2024/01/11 17:04:58;;;;;;;78.20;26.98;;;;;;;;;;6246803;28;20041;-85
2024/01/11 17:08:01;;;;;;;27.00;12.77;;;;;;;;;;6235851;28;20071;-86
2024/01/11 17:11:03;;;;;;;52.58;23.52;;;;;;;;;;6240603;28;20045;-84
2024/01/11 17:14:05;;;;;;;31.03;15.23;;;;;;;;;;6243764;28;20164;-86
2024/01/11 17:17:08;;;;;;;32.85;15.32;;;;;;;;;;6241436;28;20415;-85
2024/01/11 17:20:13;;;;;;;25.70;12.32;;;;;;;;;;6233506;28;20041;-85
2024/01/11 17:23:17;;;;;;;26.58;13.23;;;;;;;;;;6259027;28;20050;-83
2024/01/11 17:26:18;;;;;;;21.58;11.07;;;;;;;;;;6247457;28;20127;-82
2024/01/11 17:29:22;;;;;;;26.77;12.95;;;;;;;;;;6251224;28;20049;-83
2024/01/11 17:32:24;;;;;;;30.77;13.50;;;;;;;;;;6234578;28;20725;-83
2024/01/11 17:35:26;;;;;;;29.55;13.23;;;;;;;;;;6249898;28;20296;-83
2024/01/11 17:38:27;;;;;;;34.78;16.40;;;;;;;;;;6247448;28;20407;-83
2024/01/11 17:41:31;;;;;;;41.03;16.88;;;;;;;;;;6248733;28;20049;-82
2024/01/11 17:44:33;;;;;;;27.65;12.55;;;;;;;;;;6250641;28;20048;-83
2024/01/11 17:47:35;;;;;;;25.73;11.75;;;;;;;;;;6238446;28;20559;-85
2024/01/11 17:50:40;;;;;;;23.08;12.45;;;;;;;;;;6241312;28;20518;-83
2024/01/11 17:53:44;;;;;;;21.73;10.73;;;;;;;;;;6248655;28;20048;-83